FAWC Weather

FACT METAR/TAF

[source: ADDS]
METAR
FACT 300000Z 34006KT CAVOK 22/08 Q1017 NOSIG =
TAF
TAF FACT 292200Z 3000/0106 01007KT CAVOK FM300800 35010KT 9999 SCT030 BKN060 PROB40 TEMPO 3010/3018 4000 SHRA FEW060TCU PROB40 TEMPO 3019/0106 BKN008 TX23/3012ZTN13/3005Z =
SR / SS: 05:19 / 16:04 UTC (FAWC 2017-04-30)

Polls

Flying Interest Is?
 
FacebookMySpaceTwitterDiggDeliciousStumbleuponGoogle BookmarksRedditNewsvineTechnoratiLinkedinMixxRSS Feed